sensor_id;sensor_type;location;lat;lon;timestamp;temperature;humidity
2056;DHT22;1033;52.560;13.374;2022-11-06T00:01:57;7.10;99.90
2056;DHT22;1033;52.560;13.374;2022-11-06T00:04:29;7.00;99.90
2056;DHT22;1033;52.560;13.374;2022-11-06T00:06:58;6.90;99.90
2056;DHT22;1033;52.560;13.374;2022-11-06T00:09:26;6.90;99.90
2056;DHT22;1033;52.560;13.374;2022-11-06T00:11:55;6.90;99.90
2056;DHT22;1033;52.560;13.374;2022-11-06T00:14:24;6.80;99.90
2056;DHT22;1033;52.560;13.374;2022-11-06T00:16:55;6.80;99.90
2056;DHT22;1033;52.560;13.374;2022-11-06T00:19:24;6.70;99.90
2056;DHT22;1033;52.560;13.374;2022-11-06T00:21:53;6.70;99.90
2056;DHT22;1033;52.560;13.374;2022-11-06T00:24:22;6.60;99.90
2056;DHT22;1033;52.560;13.374;2022-11-06T00:26:51;6.60;99.90
2056;DHT22;1033;52.560;13.374;2022-11-06T00:29:20;6.60;99.90
2056;DHT22;1033;52.560;13.374;2022-11-06T00:31:49;6.60;99.90
2056;DHT22;1033;52.560;13.374;2022-11-06T00:34:20;6.60;99.90
2056;DHT22;1033;52.560;13.374;2022-11-06T00:36:49;6.60;99.90
2056;DHT22;1033;52.560;13.374;2022-11-06T00:39:17;6.60;99.90
2056;DHT22;1033;52.560;13.374;2022-11-06T00:41:46;6.60;99.90
2056;DHT22;1033;52.560;13.374;2022-11-06T00:44:15;6.60;99.90
2056;DHT22;1033;52.560;13.374;2022-11-06T00:46:44;6.50;99.90
2056;DHT22;1033;52.560;13.374;2022-11-06T00:49:13;6.50;99.90
2056;DHT22;1033;52.560;13.374;2022-11-06T00:51:43;6.40;99.90
2056;DHT22;1033;52.560;13.374;2022-11-06T00:54:12;6.40;99.90
2056;DHT22;1033;52.560;13.374;2022-11-06T00:56:41;6.40;99.90
2056;DHT22;1033;52.560;13.374;2022-11-06T00:59:12;6.40;99.90
2056;DHT22;1033;52.560;13.374;2022-11-06T01:01:43;6.40;99.90
2056;DHT22;1033;52.560;13.374;2022-11-06T01:04:15;6.40;99.90
2056;DHT22;1033;52.560;13.374;2022-11-06T01:06:47;6.40;99.90
2056;DHT22;1033;52.560;13.374;2022-11-06T01:09:20;6.40;99.90
2056;DHT22;1033;52.560;13.374;2022-11-06T01:11:53;6.30;99.90
2056;DHT22;1033;52.560;13.374;2022-11-06T01:14:41;6.40;99.90
2056;DHT22;1033;52.560;13.374;2022-11-06T01:17:11;6.40;99.90
2056;DHT22;1033;52.560;13.374;2022-11-06T01:19:40;6.30;99.90
2056;DHT22;1033;52.560;13.374;2022-11-06T01:22:10;6.40;99.90
2056;DHT22;1033;52.560;13.374;2022-11-06T01:24:39;6.20;99.90
2056;DHT22;1033;52.560;13.374;2022-11-06T01:27:09;6.30;99.90
2056;DHT22;1033;52.560;13.374;2022-11-06T01:29:52;6.20;99.90
2056;DHT22;1033;52.560;13.374;2022-11-06T01:32:21;6.10;99.90
2056;DHT22;1033;52.560;13.374;2022-11-06T01:34:50;6.20;99.90
2056;DHT22;1033;52.560;13.374;2022-11-06T01:37:21;6.10;99.90
2056;DHT22;1033;52.560;13.374;2022-11-06T01:39:50;6.20;99.90
2056;DHT22;1033;52.560;13.374;2022-11-06T01:42:19;6.10;99.90
2056;DHT22;1033;52.560;13.374;2022-11-06T01:45:28;6.10;99.90
2056;DHT22;1033;52.560;13.374;2022-11-06T01:48:02;6.20;99.90
2056;DHT22;1033;52.560;13.374;2022-11-06T01:50:32;6.10;99.90
2056;DHT22;1033;52.560;13.374;2022-11-06T01:53:03;6.10;99.90
2056;DHT22;1033;52.560;13.374;2022-11-06T01:55:37;6.00;99.90
2056;DHT22;1033;52.560;13.374;2022-11-06T01:58:10;6.10;99.90
2056;DHT22;1033;52.560;13.374;2022-11-06T02:00:43;6.10;99.90
2056;DHT22;1033;52.560;13.374;2022-11-06T02:03:14;6.10;99.90
2056;DHT22;1033;52.560;13.374;2022-11-06T02:05:43;6.10;99.90
2056;DHT22;1033;52.560;13.374;2022-11-06T02:08:16;6.10;99.90
2056;DHT22;1033;52.560;13.374;2022-11-06T02:10:48;6.10;99.90
2056;DHT22;1033;52.560;13.374;2022-11-06T02:13:31;6.00;99.90
2056;DHT22;1033;52.560;13.374;2022-11-06T02:16:19;6.00;99.90
2056;DHT22;1033;52.560;13.374;2022-11-06T02:19:05;6.10;99.90
2056;DHT22;1033;52.560;13.374;2022-11-06T02:25:13;6.10;99.90
2056;DHT22;1033;52.560;13.374;2022-11-06T02:27:53;6.10;99.90
2056;DHT22;1033;52.560;13.374;2022-11-06T02:30:32;6.10;99.90
2056;DHT22;1033;52.560;13.374;2022-11-06T02:33:11;6.10;99.90
2056;DHT22;1033;52.560;13.374;2022-11-06T02:35:47;6.00;99.90
2056;DHT22;1033;52.560;13.374;2022-11-06T02:38:22;6.00;99.90
2056;DHT22;1033;52.560;13.374;2022-11-06T02:40:59;5.90;99.90
2056;DHT22;1033;52.560;13.374;2022-11-06T02:43:38;5.80;99.90
2056;DHT22;1033;52.560;13.374;2022-11-06T02:46:13;5.90;99.90
2056;DHT22;1033;52.560;13.374;2022-11-06T02:48:50;6.00;99.90
2056;DHT22;1033;52.560;13.374;2022-11-06T02:51:27;6.00;99.90
2056;DHT22;1033;52.560;13.374;2022-11-06T02:54:01;6.00;99.90
2056;DHT22;1033;52.560;13.374;2022-11-06T02:56:37;6.00;99.90
2056;DHT22;1033;52.560;13.374;2022-11-06T02:59:14;6.00;99.90
2056;DHT22;1033;52.560;13.374;2022-11-06T03:01:50;6.10;99.90
2056;DHT22;1033;52.560;13.374;2022-11-06T03:04:25;6.10;99.90
2056;DHT22;1033;52.560;13.374;2022-11-06T03:07:02;6.20;99.90
2056;DHT22;1033;52.560;13.374;2022-11-06T03:09:36;6.20;99.90
2056;DHT22;1033;52.560;13.374;2022-11-06T03:12:13;6.20;99.90
2056;DHT22;1033;52.560;13.374;2022-11-06T03:14:54;6.30;99.90
2056;DHT22;1033;52.560;13.374;2022-11-06T03:17:37;6.30;99.90
2056;DHT22;1033;52.560;13.374;2022-11-06T03:20:17;6.30;99.90
2056;DHT22;1033;52.560;13.374;2022-11-06T03:22:53;6.20;99.90
2056;DHT22;1033;52.560;13.374;2022-11-06T03:25:33;6.20;99.90
2056;DHT22;1033;52.560;13.374;2022-11-06T03:28:10;6.10;99.90
2056;DHT22;1033;52.560;13.374;2022-11-06T03:30:49;6.00;99.90
2056;DHT22;1033;52.560;13.374;2022-11-06T03:33:25;6.00;99.90
2056;DHT22;1033;52.560;13.374;2022-11-06T03:36:03;5.90;99.90
2056;DHT22;1033;52.560;13.374;2022-11-06T03:38:40;5.80;99.90
2056;DHT22;1033;52.560;13.374;2022-11-06T03:41:19;5.80;99.90
2056;DHT22;1033;52.560;13.374;2022-11-06T03:43:56;5.70;99.90
2056;DHT22;1033;52.560;13.374;2022-11-06T03:46:30;5.70;99.90
2056;DHT22;1033;52.560;13.374;2022-11-06T03:49:07;5.60;99.90
2056;DHT22;1033;52.560;13.374;2022-11-06T03:51:44;5.60;99.90
2056;DHT22;1033;52.560;13.374;2022-11-06T03:54:20;5.60;99.90
2056;DHT22;1033;52.560;13.374;2022-11-06T03:56:55;5.60;99.90
2056;DHT22;1033;52.560;13.374;2022-11-06T03:59:32;5.60;99.90
2056;DHT22;1033;52.560;13.374;2022-11-06T04:02:07;5.60;99.90
2056;DHT22;1033;52.560;13.374;2022-11-06T04:04:40;5.60;99.90
2056;DHT22;1033;52.560;13.374;2022-11-06T04:07:14;5.50;99.90
2056;DHT22;1033;52.560;13.374;2022-11-06T04:09:50;5.50;99.90
2056;DHT22;1033;52.560;13.374;2022-11-06T04:12:40;5.50;99.90
2056;DHT22;1033;52.560;13.374;2022-11-06T04:15:31;5.50;99.90
2056;DHT22;1033;52.560;13.374;2022-11-06T04:18:12;5.40;99.90
2056;DHT22;1033;52.560;13.374;2022-11-06T04:20:49;5.40;99.90
2056;DHT22;1033;52.560;13.374;2022-11-06T04:23:50;5.50;99.90
2056;DHT22;1033;52.560;13.374;2022-11-06T04:27:08;5.60;99.90
2056;DHT22;1033;52.560;13.374;2022-11-06T04:30:04;5.50;99.90
2056;DHT22;1033;52.560;13.374;2022-11-06T04:32:53;5.50;99.90
2056;DHT22;1033;52.560;13.374;2022-11-06T04:35:40;5.40;99.90
2056;DHT22;1033;52.560;13.374;2022-11-06T04:38:26;5.40;99.90
2056;DHT22;1033;52.560;13.374;2022-11-06T04:41:09;5.40;99.90
2056;DHT22;1033;52.560;13.374;2022-11-06T04:43:49;5.40;99.90
2056;DHT22;1033;52.560;13.374;2022-11-06T04:46:24;5.40;99.90
2056;DHT22;1033;52.560;13.374;2022-11-06T04:48:58;5.50;99.90
2056;DHT22;1033;52.560;13.374;2022-11-06T04:51:34;5.40;99.90
2056;DHT22;1033;52.560;13.374;2022-11-06T04:54:06;5.40;99.90
2056;DHT22;1033;52.560;13.374;2022-11-06T04:56:37;5.40;99.90
2056;DHT22;1033;52.560;13.374;2022-11-06T04:59:14;5.30;99.90
2056;DHT22;1033;52.560;13.374;2022-11-06T05:01:45;5.30;99.90
2056;DHT22;1033;52.560;13.374;2022-11-06T05:04:14;5.30;99.90
2056;DHT22;1033;52.560;13.374;2022-11-06T05:06:44;5.30;99.90
2056;DHT22;1033;52.560;13.374;2022-11-06T05:09:13;5.30;99.90
2056;DHT22;1033;52.560;13.374;2022-11-06T05:11:42;5.20;99.90
2056;DHT22;1033;52.560;13.374;2022-11-06T05:14:11;5.20;99.90
2056;DHT22;1033;52.560;13.374;2022-11-06T05:16:40;5.10;99.90
2056;DHT22;1033;52.560;13.374;2022-11-06T05:19:09;5.20;99.90
2056;DHT22;1033;52.560;13.374;2022-11-06T05:21:37;5.20;99.90
2056;DHT22;1033;52.560;13.374;2022-11-06T05:24:25;5.20;99.90
2056;DHT22;1033;52.560;13.374;2022-11-06T05:26:54;5.10;99.90
2056;DHT22;1033;52.560;13.374;2022-11-06T05:29:27;5.10;99.90
2056;DHT22;1033;52.560;13.374;2022-11-06T05:31:55;5.10;99.90
2056;DHT22;1033;52.560;13.374;2022-11-06T05:34:24;5.10;99.90
2056;DHT22;1033;52.560;13.374;2022-11-06T05:36:53;5.10;99.90
2056;DHT22;1033;52.560;13.374;2022-11-06T05:39:22;5.00;99.90
2056;DHT22;1033;52.560;13.374;2022-11-06T05:45:26;5.00;99.90
2056;DHT22;1033;52.560;13.374;2022-11-06T05:47:55;5.00;99.90
2056;DHT22;1033;52.560;13.374;2022-11-06T05:50:25;5.00;99.90
2056;DHT22;1033;52.560;13.374;2022-11-06T05:52:53;5.00;99.90
2056;DHT22;1033;52.560;13.374;2022-11-06T05:55:22;5.10;99.90
2056;DHT22;1033;52.560;13.374;2022-11-06T05:57:51;5.10;99.90
2056;DHT22;1033;52.560;13.374;2022-11-06T06:00:20;5.10;99.90
2056;DHT22;1033;52.560;13.374;2022-11-06T06:02:50;5.10;99.90
2056;DHT22;1033;52.560;13.374;2022-11-06T06:05:19;5.10;99.90
2056;DHT22;1033;52.560;13.374;2022-11-06T06:07:48;5.00;99.90
2056;DHT22;1033;52.560;13.374;2022-11-06T06:10:17;5.00;99.90
2056;DHT22;1033;52.560;13.374;2022-11-06T06:12:48;5.00;99.90
2056;DHT22;1033;52.560;13.374;2022-11-06T06:15:17;5.00;99.90
2056;DHT22;1033;52.560;13.374;2022-11-06T06:17:46;5.00;99.90
2056;DHT22;1033;52.560;13.374;2022-11-06T06:20:16;5.00;99.90
2056;DHT22;1033;52.560;13.374;2022-11-06T06:22:52;5.00;99.90
2056;DHT22;1033;52.560;13.374;2022-11-06T06:25:21;5.00;99.90
2056;DHT22;1033;52.560;13.374;2022-11-06T06:27:51;5.00;99.90
2056;DHT22;1033;52.560;13.374;2022-11-06T06:30:20;5.10;99.90
2056;DHT22;1033;52.560;13.374;2022-11-06T06:32:50;5.10;99.90
2056;DHT22;1033;52.560;13.374;2022-11-06T06:35:21;5.10;99.90
2056;DHT22;1033;52.560;13.374;2022-11-06T06:37:51;5.20;99.90
2056;DHT22;1033;52.560;13.374;2022-11-06T06:40:21;5.20;99.90
2056;DHT22;1033;52.560;13.374;2022-11-06T06:42:50;5.20;99.90
2056;DHT22;1033;52.560;13.374;2022-11-06T06:45:19;5.20;99.90
2056;DHT22;1033;52.560;13.374;2022-11-06T06:47:47;5.30;99.90
2056;DHT22;1033;52.560;13.374;2022-11-06T06:50:16;5.30;99.90
2056;DHT22;1033;52.560;13.374;2022-11-06T06:52:47;5.30;99.90
2056;DHT22;1033;52.560;13.374;2022-11-06T06:55:16;5.30;99.90
2056;DHT22;1033;52.560;13.374;2022-11-06T06:57:45;5.30;99.90
2056;DHT22;1033;52.560;13.374;2022-11-06T07:00:14;5.40;99.90
2056;DHT22;1033;52.560;13.374;2022-11-06T07:02:43;5.40;99.90
2056;DHT22;1033;52.560;13.374;2022-11-06T07:05:12;5.40;99.90
2056;DHT22;1033;52.560;13.374;2022-11-06T07:07:41;5.50;99.90
2056;DHT22;1033;52.560;13.374;2022-11-06T07:10:11;5.60;99.90
2056;DHT22;1033;52.560;13.374;2022-11-06T07:12:40;5.70;99.90
2056;DHT22;1033;52.560;13.374;2022-11-06T07:15:09;5.80;99.90
2056;DHT22;1033;52.560;13.374;2022-11-06T07:17:38;6.00;99.90
2056;DHT22;1033;52.560;13.374;2022-11-06T07:20:08;6.00;99.90
2056;DHT22;1033;52.560;13.374;2022-11-06T07:22:38;6.20;99.90
2056;DHT22;1033;52.560;13.374;2022-11-06T07:28:11;6.30;99.90
2056;DHT22;1033;52.560;13.374;2022-11-06T07:30:40;6.40;99.90
2056;DHT22;1033;52.560;13.374;2022-11-06T07:33:09;6.50;99.90
2056;DHT22;1033;52.560;13.374;2022-11-06T07:35:38;6.50;99.90
2056;DHT22;1033;52.560;13.374;2022-11-06T07:38:07;6.60;99.90
2056;DHT22;1033;52.560;13.374;2022-11-06T07:40:37;6.70;99.90
2056;DHT22;1033;52.560;13.374;2022-11-06T07:43:07;6.80;99.90
2056;DHT22;1033;52.560;13.374;2022-11-06T07:45:39;6.90;99.90
2056;DHT22;1033;52.560;13.374;2022-11-06T07:48:08;6.90;99.90
2056;DHT22;1033;52.560;13.374;2022-11-06T07:50:37;6.90;99.90
2056;DHT22;1033;52.560;13.374;2022-11-06T07:53:06;6.90;99.90
2056;DHT22;1033;52.560;13.374;2022-11-06T07:55:34;6.90;99.90
2056;DHT22;1033;52.560;13.374;2022-11-06T07:58:08;7.00;99.90
2056;DHT22;1033;52.560;13.374;2022-11-06T08:00:39;7.00;99.90
2056;DHT22;1033;52.560;13.374;2022-11-06T08:03:08;7.10;99.90
2056;DHT22;1033;52.560;13.374;2022-11-06T08:05:37;7.20;99.90
2056;DHT22;1033;52.560;13.374;2022-11-06T08:08:06;7.30;99.90
2056;DHT22;1033;52.560;13.374;2022-11-06T08:10:35;7.30;99.90
2056;DHT22;1033;52.560;13.374;2022-11-06T08:13:06;7.40;99.90
2056;DHT22;1033;52.560;13.374;2022-11-06T08:15:37;7.50;99.90
2056;DHT22;1033;52.560;13.374;2022-11-06T08:18:09;7.60;99.90
2056;DHT22;1033;52.560;13.374;2022-11-06T08:20:40;7.70;99.90
2056;DHT22;1033;52.560;13.374;2022-11-06T08:23:10;7.60;99.90
2056;DHT22;1033;52.560;13.374;2022-11-06T08:25:40;7.60;99.90
2056;DHT22;1033;52.560;13.374;2022-11-06T08:28:10;7.70;99.90
2056;DHT22;1033;52.560;13.374;2022-11-06T08:30:40;7.70;99.90
2056;DHT22;1033;52.560;13.374;2022-11-06T08:33:10;7.80;99.90
2056;DHT22;1033;52.560;13.374;2022-11-06T08:35:38;7.90;99.90
2056;DHT22;1033;52.560;13.374;2022-11-06T08:38:07;8.10;99.90
2056;DHT22;1033;52.560;13.374;2022-11-06T08:40:37;8.10;99.90
2056;DHT22;1033;52.560;13.374;2022-11-06T08:43:09;8.10;99.90
2056;DHT22;1033;52.560;13.374;2022-11-06T08:45:41;8.10;99.90
2056;DHT22;1033;52.560;13.374;2022-11-06T08:48:10;8.20;99.90
2056;DHT22;1033;52.560;13.374;2022-11-06T08:50:40;8.20;99.90
2056;DHT22;1033;52.560;13.374;2022-11-06T08:53:09;8.30;99.90
2056;DHT22;1033;52.560;13.374;2022-11-06T08:55:39;8.50;99.90
2056;DHT22;1033;52.560;13.374;2022-11-06T08:58:07;8.40;99.90
2056;DHT22;1033;52.560;13.374;2022-11-06T09:00:40;8.50;99.90
2056;DHT22;1033;52.560;13.374;2022-11-06T09:03:12;8.50;99.90
2056;DHT22;1033;52.560;13.374;2022-11-06T09:05:44;8.60;99.90
2056;DHT22;1033;52.560;13.374;2022-11-06T09:08:13;8.70;99.90
2056;DHT22;1033;52.560;13.374;2022-11-06T09:10:43;8.80;99.90
2056;DHT22;1033;52.560;13.374;2022-11-06T09:13:12;8.80;99.90
2056;DHT22;1033;52.560;13.374;2022-11-06T09:15:43;8.90;99.90
2056;DHT22;1033;52.560;13.374;2022-11-06T09:18:13;9.00;99.90
2056;DHT22;1033;52.560;13.374;2022-11-06T09:20:41;9.00;99.90
2056;DHT22;1033;52.560;13.374;2022-11-06T09:23:10;9.10;99.90
2056;DHT22;1033;52.560;13.374;2022-11-06T09:25:40;9.20;99.90
2056;DHT22;1033;52.560;13.374;2022-11-06T09:28:09;9.30;99.90
2056;DHT22;1033;52.560;13.374;2022-11-06T09:30:38;9.40;99.90
2056;DHT22;1033;52.560;13.374;2022-11-06T09:33:08;9.50;99.90
2056;DHT22;1033;52.560;13.374;2022-11-06T09:35:40;9.60;99.90
2056;DHT22;1033;52.560;13.374;2022-11-06T09:38:11;9.50;99.90
2056;DHT22;1033;52.560;13.374;2022-11-06T09:40:46;9.60;99.90
2056;DHT22;1033;52.560;13.374;2022-11-06T09:43:30;9.60;99.90
2056;DHT22;1033;52.560;13.374;2022-11-06T09:46:39;9.60;99.90
2056;DHT22;1033;52.560;13.374;2022-11-06T09:49:17;9.70;99.90
2056;DHT22;1033;52.560;13.374;2022-11-06T09:51:57;9.70;99.90
2056;DHT22;1033;52.560;13.374;2022-11-06T09:54:35;9.70;99.90
2056;DHT22;1033;52.560;13.374;2022-11-06T09:57:15;9.90;99.90
2056;DHT22;1033;52.560;13.374;2022-11-06T09:59:49;9.90;99.90
2056;DHT22;1033;52.560;13.374;2022-11-06T10:02:25;9.90;99.90
2056;DHT22;1033;52.560;13.374;2022-11-06T10:05:04;9.90;99.90
2056;DHT22;1033;52.560;13.374;2022-11-06T10:07:40;9.90;99.90
2056;DHT22;1033;52.560;13.374;2022-11-06T10:10:15;9.90;99.90
2056;DHT22;1033;52.560;13.374;2022-11-06T10:13:03;9.90;99.90
2056;DHT22;1033;52.560;13.374;2022-11-06T10:15:48;9.90;99.90
2056;DHT22;1033;52.560;13.374;2022-11-06T10:18:36;9.90;99.90
2056;DHT22;1033;52.560;13.374;2022-11-06T10:21:22;10.00;99.90
2056;DHT22;1033;52.560;13.374;2022-11-06T10:23:55;10.30;99.90
2056;DHT22;1033;52.560;13.374;2022-11-06T10:26:34;10.40;99.90
2056;DHT22;1033;52.560;13.374;2022-11-06T10:32:35;10.60;99.90
2056;DHT22;1033;52.560;13.374;2022-11-06T10:35:18;10.70;99.90
2056;DHT22;1033;52.560;13.374;2022-11-06T10:37:56;10.80;99.30
2056;DHT22;1033;52.560;13.374;2022-11-06T10:40:30;10.80;99.30
2056;DHT22;1033;52.560;13.374;2022-11-06T10:43:08;10.80;98.80
2056;DHT22;1033;52.560;13.374;2022-11-06T10:45:49;10.70;99.10
2056;DHT22;1033;52.560;13.374;2022-11-06T10:48:22;10.70;98.50
2056;DHT22;1033;52.560;13.374;2022-11-06T10:51:13;10.60;99.50
2056;DHT22;1033;52.560;13.374;2022-11-06T10:54:00;10.50;99.20
2056;DHT22;1033;52.560;13.374;2022-11-06T10:56:52;10.70;99.70
2056;DHT22;1033;52.560;13.374;2022-11-06T10:59:31;10.90;99.70
2056;DHT22;1033;52.560;13.374;2022-11-06T11:02:01;10.90;97.80
2056;DHT22;1033;52.560;13.374;2022-11-06T11:04:31;11.00;97.90
2056;DHT22;1033;52.560;13.374;2022-11-06T11:07:09;11.10;97.30
2056;DHT22;1033;52.560;13.374;2022-11-06T11:09:49;11.10;97.80
2056;DHT22;1033;52.560;13.374;2022-11-06T11:12:21;11.10;97.00
2056;DHT22;1033;52.560;13.374;2022-11-06T11:15:10;11.00;96.40
2056;DHT22;1033;52.560;13.374;2022-11-06T11:17:42;11.10;96.80
2056;DHT22;1033;52.560;13.374;2022-11-06T11:20:37;11.10;95.50
2056;DHT22;1033;52.560;13.374;2022-11-06T11:23:14;11.10;96.10
2056;DHT22;1033;52.560;13.374;2022-11-06T11:25:48;11.30;96.40
2056;DHT22;1033;52.560;13.374;2022-11-06T11:28:36;11.30;96.30
2056;DHT22;1033;52.560;13.374;2022-11-06T11:31:33;11.30;95.40
2056;DHT22;1033;52.560;13.374;2022-11-06T11:34:05;11.40;95.40
2056;DHT22;1033;52.560;13.374;2022-11-06T11:36:55;11.60;94.50
2056;DHT22;1033;52.560;13.374;2022-11-06T11:39:29;11.60;93.30
2056;DHT22;1033;52.560;13.374;2022-11-06T11:42:28;11.60;92.50
2056;DHT22;1033;52.560;13.374;2022-11-06T11:45:15;11.40;93.90
2056;DHT22;1033;52.560;13.374;2022-11-06T11:47:48;11.50;93.30
2056;DHT22;1033;52.560;13.374;2022-11-06T11:50:25;11.60;93.40
2056;DHT22;1033;52.560;13.374;2022-11-06T11:53:04;11.60;93.00
2056;DHT22;1033;52.560;13.374;2022-11-06T11:55:40;11.40;92.70
2056;DHT22;1033;52.560;13.374;2022-11-06T11:58:26;11.50;93.90
2056;DHT22;1033;52.560;13.374;2022-11-06T12:00:57;11.40;92.70
2056;DHT22;1033;52.560;13.374;2022-11-06T12:03:33;11.40;92.60
2056;DHT22;1033;52.560;13.374;2022-11-06T12:06:09;11.40;93.20
2056;DHT22;1033;52.560;13.374;2022-11-06T12:08:45;11.30;92.80
2056;DHT22;1033;52.560;13.374;2022-11-06T12:11:20;11.20;93.30
2056;DHT22;1033;52.560;13.374;2022-11-06T12:14:18;11.30;92.90
2056;DHT22;1033;52.560;13.374;2022-11-06T12:16:58;11.40;93.30
2056;DHT22;1033;52.560;13.374;2022-11-06T12:19:33;11.50;92.60
2056;DHT22;1033;52.560;13.374;2022-11-06T12:22:11;11.60;92.10
2056;DHT22;1033;52.560;13.374;2022-11-06T12:24:50;11.60;91.10
2056;DHT22;1033;52.560;13.374;2022-11-06T12:27:26;11.60;90.20
2056;DHT22;1033;52.560;13.374;2022-11-06T12:30:08;11.60;90.30
2056;DHT22;1033;52.560;13.374;2022-11-06T12:32:46;11.60;90.80
2056;DHT22;1033;52.560;13.374;2022-11-06T12:35:26;11.70;90.90
2056;DHT22;1033;52.560;13.374;2022-11-06T12:38:12;11.70;88.80
2056;DHT22;1033;52.560;13.374;2022-11-06T12:40:49;11.70;86.40
2056;DHT22;1033;52.560;13.374;2022-11-06T12:43:31;11.80;86.70
2056;DHT22;1033;52.560;13.374;2022-11-06T12:46:26;11.80;85.20
2056;DHT22;1033;52.560;13.374;2022-11-06T12:49:22;11.70;85.50
2056;DHT22;1033;52.560;13.374;2022-11-06T12:52:12;11.80;86.10
2056;DHT22;1033;52.560;13.374;2022-11-06T12:55:14;11.80;85.00
2056;DHT22;1033;52.560;13.374;2022-11-06T12:58:05;11.70;84.60
2056;DHT22;1033;52.560;13.374;2022-11-06T13:00:53;11.70;85.00
2056;DHT22;1033;52.560;13.374;2022-11-06T13:03:53;11.90;85.60
2056;DHT22;1033;52.560;13.374;2022-11-06T13:07:00;11.80;84.00
2056;DHT22;1033;52.560;13.374;2022-11-06T13:09:51;11.80;83.00
2056;DHT22;1033;52.560;13.374;2022-11-06T13:12:36;11.80;82.20
2056;DHT22;1033;52.560;13.374;2022-11-06T13:15:22;11.70;83.40
2056;DHT22;1033;52.560;13.374;2022-11-06T13:18:05;11.90;83.50
2056;DHT22;1033;52.560;13.374;2022-11-06T13:20:46;11.90;82.90
2056;DHT22;1033;52.560;13.374;2022-11-06T13:23:25;11.90;83.10
2056;DHT22;1033;52.560;13.374;2022-11-06T13:26:04;11.90;83.20
2056;DHT22;1033;52.560;13.374;2022-11-06T13:28:42;11.90;82.40
2056;DHT22;1033;52.560;13.374;2022-11-06T13:31:17;11.90;81.30
2056;DHT22;1033;52.560;13.374;2022-11-06T13:33:50;11.90;80.10
2056;DHT22;1033;52.560;13.374;2022-11-06T13:36:25;11.80;78.70
2056;DHT22;1033;52.560;13.374;2022-11-06T13:39:02;11.70;79.60
2056;DHT22;1033;52.560;13.374;2022-11-06T13:41:34;11.70;80.80
2056;DHT22;1033;52.560;13.374;2022-11-06T13:44:04;11.70;80.00
2056;DHT22;1033;52.560;13.374;2022-11-06T13:46:38;11.70;80.40
2056;DHT22;1033;52.560;13.374;2022-11-06T13:49:21;11.70;80.30
2056;DHT22;1033;52.560;13.374;2022-11-06T13:51:59;11.70;80.10
2056;DHT22;1033;52.560;13.374;2022-11-06T13:54:44;11.60;81.00
2056;DHT22;1033;52.560;13.374;2022-11-06T13:57:35;11.60;82.50
2056;DHT22;1033;52.560;13.374;2022-11-06T14:00:19;11.70;83.40
2056;DHT22;1033;52.560;13.374;2022-11-06T14:03:17;11.80;83.80
2056;DHT22;1033;52.560;13.374;2022-11-06T14:06:02;11.70;84.30
2056;DHT22;1033;52.560;13.374;2022-11-06T14:08:40;11.70;86.70
2056;DHT22;1033;52.560;13.374;2022-11-06T14:11:15;11.70;84.00
2056;DHT22;1033;52.560;13.374;2022-11-06T14:13:58;11.50;84.50
2056;DHT22;1033;52.560;13.374;2022-11-06T14:16:30;11.50;86.30
2056;DHT22;1033;52.560;13.374;2022-11-06T14:19:09;11.40;87.20
2056;DHT22;1033;52.560;13.374;2022-11-06T14:21:45;11.40;89.60
2056;DHT22;1033;52.560;13.374;2022-11-06T14:24:32;11.30;90.80
2056;DHT22;1033;52.560;13.374;2022-11-06T14:27:04;11.30;91.10
2056;DHT22;1033;52.560;13.374;2022-11-06T14:29:56;11.20;91.40
2056;DHT22;1033;52.560;13.374;2022-11-06T14:32:41;11.20;91.90
2056;DHT22;1033;52.560;13.374;2022-11-06T14:35:48;11.10;91.90
2056;DHT22;1033;52.560;13.374;2022-11-06T14:38:36;11.10;93.00
2056;DHT22;1033;52.560;13.374;2022-11-06T14:44:40;11.10;93.60
2056;DHT22;1033;52.560;13.374;2022-11-06T14:47:34;11.00;93.70
2056;DHT22;1033;52.560;13.374;2022-11-06T14:50:24;10.90;94.90
2056;DHT22;1033;52.560;13.374;2022-11-06T14:53:04;10.80;94.90
2056;DHT22;1033;52.560;13.374;2022-11-06T14:56:00;10.80;94.60
2056;DHT22;1033;52.560;13.374;2022-11-06T14:58:49;10.70;94.60
2056;DHT22;1033;52.560;13.374;2022-11-06T15:01:29;10.70;95.40
2056;DHT22;1033;52.560;13.374;2022-11-06T15:04:21;10.60;94.90
2056;DHT22;1033;52.560;13.374;2022-11-06T15:10:49;10.50;96.10
2056;DHT22;1033;52.560;13.374;2022-11-06T15:13:25;10.60;96.20
2056;DHT22;1033;52.560;13.374;2022-11-06T15:16:09;10.50;96.50
2056;DHT22;1033;52.560;13.374;2022-11-06T15:21:19;10.20;98.10
2056;DHT22;1033;52.560;13.374;2022-11-06T15:24:00;10.10;99.10
2056;DHT22;1033;52.560;13.374;2022-11-06T15:26:36;10.00;99.90
2056;DHT22;1033;52.560;13.374;2022-11-06T15:29:19;10.00;99.90
2056;DHT22;1033;52.560;13.374;2022-11-06T15:31:58;9.80;99.90
2056;DHT22;1033;52.560;13.374;2022-11-06T15:34:33;9.80;99.90
2056;DHT22;1033;52.560;13.374;2022-11-06T15:37:09;9.80;99.90
2056;DHT22;1033;52.560;13.374;2022-11-06T15:39:41;9.70;99.90
2056;DHT22;1033;52.560;13.374;2022-11-06T15:42:30;9.70;99.90
2056;DHT22;1033;52.560;13.374;2022-11-06T15:45:06;9.70;99.90
2056;DHT22;1033;52.560;13.374;2022-11-06T15:47:41;9.60;99.90
2056;DHT22;1033;52.560;13.374;2022-11-06T15:50:22;9.70;99.90
2056;DHT22;1033;52.560;13.374;2022-11-06T15:52:53;9.70;99.90
2056;DHT22;1033;52.560;13.374;2022-11-06T15:55:27;9.50;99.90
2056;DHT22;1033;52.560;13.374;2022-11-06T15:58:06;9.50;99.90
2056;DHT22;1033;52.560;13.374;2022-11-06T16:00:39;9.50;99.90
2056;DHT22;1033;52.560;13.374;2022-11-06T16:03:13;9.40;99.90
2056;DHT22;1033;52.560;13.374;2022-11-06T16:05:45;9.40;99.90
2056;DHT22;1033;52.560;13.374;2022-11-06T16:08:17;9.30;99.90
2056;DHT22;1033;52.560;13.374;2022-11-06T16:10:48;9.30;99.90
2056;DHT22;1033;52.560;13.374;2022-11-06T16:13:20;9.10;99.90
2056;DHT22;1033;52.560;13.374;2022-11-06T16:15:53;9.10;99.90
2056;DHT22;1033;52.560;13.374;2022-11-06T16:18:28;9.10;99.90
2056;DHT22;1033;52.560;13.374;2022-11-06T16:21:07;9.00;99.90
2056;DHT22;1033;52.560;13.374;2022-11-06T16:23:43;9.00;99.90
2056;DHT22;1033;52.560;13.374;2022-11-06T16:26:19;9.00;99.90
2056;DHT22;1033;52.560;13.374;2022-11-06T16:28:52;9.00;99.90
2056;DHT22;1033;52.560;13.374;2022-11-06T16:31:24;9.10;99.90
2056;DHT22;1033;52.560;13.374;2022-11-06T16:34:00;9.10;99.90
2056;DHT22;1033;52.560;13.374;2022-11-06T16:36:58;9.00;99.90
2056;DHT22;1033;52.560;13.374;2022-11-06T16:39:40;9.00;99.90
2056;DHT22;1033;52.560;13.374;2022-11-06T16:42:30;9.00;99.90
2056;DHT22;1033;52.560;13.374;2022-11-06T16:45:13;9.10;99.90
2056;DHT22;1033;52.560;13.374;2022-11-06T16:51:07;9.00;99.90
2056;DHT22;1033;52.560;13.374;2022-11-06T16:53:54;9.00;99.90
2056;DHT22;1033;52.560;13.374;2022-11-06T16:56:27;9.00;99.90
2056;DHT22;1033;52.560;13.374;2022-11-06T16:59:02;9.00;99.90
2056;DHT22;1033;52.560;13.374;2022-11-06T17:01:37;9.00;99.90
2056;DHT22;1033;52.560;13.374;2022-11-06T17:04:12;9.00;99.90
2056;DHT22;1033;52.560;13.374;2022-11-06T17:06:50;8.90;99.90
2056;DHT22;1033;52.560;13.374;2022-11-06T17:09:28;8.80;99.90
2056;DHT22;1033;52.560;13.374;2022-11-06T17:12:01;8.70;99.90
2056;DHT22;1033;52.560;13.374;2022-11-06T17:14:31;8.70;99.90
2056;DHT22;1033;52.560;13.374;2022-11-06T17:17:00;8.70;99.90
2056;DHT22;1033;52.560;13.374;2022-11-06T17:19:31;8.70;99.90
2056;DHT22;1033;52.560;13.374;2022-11-06T17:22:03;8.60;99.90